Time;durP1;ratioP1;P1;durP2;ratioP2;P2;SDS_P1;SDS_P2;PMS_P1;PMS_P2;Temp;Humidity;BMP_temperature;BMP_pressure;BME280_temperature;BME280_humidity;BME280_pressure;Samples;Min_cycle;Max_cycle;Signal;HPM_P1;HPM_P2
2022/07/05 00:02:15;;;;;;;7.88;5.57;;;;;;;17.35;62.53;102076.13;5011999;28;20034;-51
2022/07/05 00:04:41;;;;;;;8.40;5.95;;;;;;;17.30;63.01;102072.53;5012360;28;20050;-48
2022/07/05 00:07:19;;;;;;;7.63;5.60;;;;;;;17.21;63.00;102068.88;5012313;28;20030;-56
2022/07/05 00:09:47;;;;;;;8.82;6.00;;;;;;;17.20;62.98;102069.75;5011396;28;20033;-56
2022/07/05 00:12:15;;;;;;;8.98;6.15;;;;;;;17.12;63.67;102063.50;5012226;28;20025;-56
2022/07/05 00:14:42;;;;;;;7.90;5.78;;;;;;;17.09;63.40;102066.06;5011358;28;20028;-56
2022/07/05 00:17:07;;;;;;;8.75;5.82;;;;;;;17.04;63.79;102070.38;5010896;28;20101;-56
2022/07/05 00:19:33;;;;;;;7.60;5.78;;;;;;;16.99;63.21;102069.41;5012148;28;20120;-56
2022/07/05 00:21:58;;;;;;;6.80;5.60;;;;;;;16.92;64.46;102067.53;5012081;28;20108;-56
2022/07/05 00:24:25;;;;;;;8.80;6.13;;;;;;;16.86;64.30;102066.53;5012059;28;20390;-56
2022/07/05 00:26:50;;;;;;;7.45;5.75;;;;;;;16.85;64.01;102064.75;5009465;28;20106;-56
2022/07/05 00:29:16;;;;;;;8.25;6.03;;;;;;;16.81;64.66;102067.31;5010544;28;20133;-56
2022/07/05 00:31:41;;;;;;;7.50;5.70;;;;;;;16.77;64.33;102063.75;5011848;28;20034;-56
2022/07/05 00:34:06;;;;;;;7.63;5.65;;;;;;;16.67;64.99;102065.34;5012858;28;20489;-56
2022/07/05 00:36:32;;;;;;;8.75;5.90;;;;;;;16.60;65.25;102062.56;5008999;28;20033;-50
2022/07/05 00:38:57;;;;;;;7.68;5.55;;;;;;;16.58;65.22;102065.13;5011699;28;20100;-51
2022/07/05 00:41:22;;;;;;;8.60;5.65;;;;;;;16.55;65.38;102069.47;5010280;28;20519;-50
2022/07/05 00:44:08;;;;;;;7.05;5.43;;;;;;;16.54;64.56;102063.34;5010992;28;20462;-53
2022/07/05 00:46:35;;;;;;;8.15;5.70;;;;;;;16.44;65.14;102066.66;5010282;28;20038;-50
2022/07/05 00:49:01;;;;;;;7.65;5.70;;;;;;;16.37;65.24;102064.78;5011049;28;20025;-51
2022/07/05 00:51:30;;;;;;;8.63;6.00;;;;;;;16.32;65.17;102054.13;5011945;28;20026;-50
2022/07/05 00:53:56;;;;;;;9.07;6.07;;;;;;;16.30;65.28;102067.25;5010912;28;20026;-49
2022/07/05 00:56:24;;;;;;;7.07;5.60;;;;;;;16.19;65.50;102067.91;5009678;28;20386;-50
2022/07/05 00:58:50;;;;;;;8.50;6.13;;;;;;;16.15;65.82;102064.34;5011057;28;20038;-51
2022/07/05 01:01:16;;;;;;;9.20;5.90;;;;;;;16.08;66.47;102055.44;5011204;28;20045;-48
2022/07/05 01:03:42;;;;;;;6.72;5.50;;;;;;;16.05;66.05;102055.38;5011197;28;20041;-49
2022/07/05 01:06:09;;;;;;;8.05;5.80;;;;;;;16.03;66.02;102057.06;5009903;28;20272;-52
2022/07/05 01:08:40;;;;;;;8.02;5.88;;;;;;;16.00;65.92;102059.63;5011467;28;20030;-49
2022/07/05 01:11:07;;;;;;;7.22;5.90;;;;;;;15.96;65.72;102063.97;5010473;28;20117;-52
2022/07/05 01:13:33;;;;;;;6.88;5.78;;;;;;;15.90;65.66;102066.47;5011482;28;20037;-48
2022/07/05 01:15:59;;;;;;;8.15;5.95;;;;;;;15.87;66.28;102062.88;5010109;28;20030;-48
2022/07/05 01:18:25;;;;;;;7.80;5.70;;;;;;;15.86;66.70;102066.34;5008947;28;20085;-50
2022/07/05 01:20:51;;;;;;;7.88;5.85;;;;;;;15.80;66.54;102061.84;5010916;28;20045;-49
2022/07/05 01:23:18;;;;;;;7.93;6.10;;;;;;;15.77;66.54;102061.75;5011047;28;20049;-51
2022/07/05 01:25:44;;;;;;;8.48;6.18;;;;;;;15.76;66.16;102067.88;5011099;28;20477;-49
2022/07/05 01:28:10;;;;;;;8.02;6.03;;;;;;;15.70;67.45;102059.84;5008954;28;20127;-50
2022/07/05 01:30:35;;;;;;;8.40;5.90;;;;;;;15.69;66.85;102060.72;5011177;28;20018;-49
2022/07/05 01:33:01;;;;;;;7.55;5.90;;;;;;;15.66;67.16;102058.91;5011619;28;20040;-50
2022/07/05 01:35:27;;;;;;;7.93;6.25;;;;;;;15.62;66.91;102068.44;5009363;28;20049;-49
2022/07/05 01:37:53;;;;;;;7.82;5.93;;;;;;;15.60;67.00;102064.03;5011075;28;20033;-51
2022/07/05 01:40:19;;;;;;;7.70;6.38;;;;;;;15.58;67.11;102070.97;5008698;28;20441;-51
2022/07/05 01:42:46;;;;;;;8.40;6.40;;;;;;;15.53;67.39;102062.09;5011031;28;20053;-52
2022/07/05 01:45:11;;;;;;;7.68;6.03;;;;;;;15.46;67.25;102061.94;5008518;28;20022;-49
2022/07/05 01:47:41;;;;;;;8.18;5.72;;;;;;;15.43;66.88;102061.88;5009415;28;20057;-51
2022/07/05 01:50:09;;;;;;;8.13;6.32;;;;;;;15.39;66.84;102062.66;5009855;28;20021;-49
2022/07/05 01:52:36;;;;;;;10.27;6.70;;;;;;;15.37;67.75;102063.50;5010497;28;20025;-49
2022/07/05 01:55:03;;;;;;;9.13;6.68;;;;;;;15.37;67.82;102059.13;5009941;28;20456;-50
2022/07/05 01:57:28;;;;;;;8.35;6.45;;;;;;;15.32;68.10;102059.84;5004121;28;20452;-48
2022/07/05 01:59:54;;;;;;;8.77;6.63;;;;;;;15.22;68.56;102058.75;5007823;28;20041;-48
2022/07/05 02:02:19;;;;;;;9.05;7.47;;;;;;;15.17;68.69;102061.25;5008915;28;20112;-52
2022/07/05 02:04:45;;;;;;;10.63;7.40;;;;;;;15.08;69.11;102054.06;5008426;28;20474;-51
2022/07/05 02:07:10;;;;;;;9.15;7.07;;;;;;;15.07;69.16;102056.66;5009001;28;20088;-51
2022/07/05 02:09:36;;;;;;;8.85;6.90;;;;;;;14.97;69.69;102060.78;5010592;28;20025;-48
2022/07/05 02:12:03;;;;;;;9.75;7.15;;;;;;;14.98;69.43;102056.44;5008846;28;20038;-50
2022/07/05 02:14:29;;;;;;;10.32;7.68;;;;;;;14.93;69.63;102054.56;5009379;28;20436;-50
2022/07/05 02:16:56;;;;;;;10.10;7.90;;;;;;;14.90;69.87;102057.13;5009959;28;20129;-56
2022/07/05 02:19:21;;;;;;;9.98;7.50;;;;;;;14.91;69.28;102052.75;5010899;28;20106;-56
2022/07/05 02:21:47;;;;;;;11.05;8.02;;;;;;;14.93;69.53;102053.66;5010382;28;20116;-56
2022/07/05 02:24:12;;;;;;;9.30;7.68;;;;;;;14.92;68.95;102054.53;5007048;28;20030;-56
2022/07/05 02:26:37;;;;;;;9.82;7.43;;;;;;;14.89;68.58;102046.59;5009958;28;20397;-56
2022/07/05 02:29:03;;;;;;;9.18;7.28;;;;;;;14.90;68.54;102053.59;5008820;28;20288;-56
2022/07/05 02:31:29;;;;;;;9.48;7.32;;;;;;;14.85;68.92;102056.09;5009837;28;20487;-56
2022/07/05 02:33:55;;;;;;;10.70;7.57;;;;;;;14.81;68.93;102053.38;5009515;28;20030;-56
2022/07/05 02:36:20;;;;;;;10.63;8.10;;;;;;;14.71;69.69;102052.25;5008706;28;20037;-56
2022/07/05 02:38:46;;;;;;;9.50;7.47;;;;;;;14.69;69.73;102049.56;5010362;28;20033;-56
2022/07/05 02:41:12;;;;;;;9.98;7.63;;;;;;;14.66;69.77;102053.88;5009924;28;20026;-56
2022/07/05 02:43:39;;;;;;;9.95;7.40;;;;;;;14.65;69.24;102052.09;5005069;28;20037;-56
2022/07/05 02:46:05;;;;;;;10.25;7.40;;;;;;;14.67;69.62;102053.91;5009145;28;20044;-56
2022/07/05 02:48:32;;;;;;;10.95;8.25;;;;;;;14.69;69.49;102059.19;5009558;28;20034;-48
2022/07/05 02:50:57;;;;;;;11.20;7.53;;;;;;;14.68;69.79;102055.66;5010288;28;20032;-48
2022/07/05 02:53:23;;;;;;;9.75;7.70;;;;;;;14.61;69.42;102066.81;5009010;28;20101;-48
2022/07/05 02:55:49;;;;;;;11.00;7.88;;;;;;;14.57;68.61;102070.19;5010131;28;20076;-51
2022/07/05 02:58:16;;;;;;;10.77;7.35;;;;;;;14.53;69.19;102068.34;5008093;28;20025;-49
2022/07/05 03:00:42;;;;;;;9.38;7.32;;;;;;;14.47;69.32;102076.03;5006266;28;20448;-50
2022/07/05 03:03:07;;;;;;;9.32;7.10;;;;;;;14.44;69.38;102075.13;5009197;28;20029;-49
2022/07/05 03:05:32;;;;;;;9.88;6.88;;;;;;;14.39;69.46;102081.97;5006653;28;20178;-48
2022/07/05 03:07:58;;;;;;;9.25;7.03;;;;;;;14.35;69.47;102067.00;5006365;28;20145;-52
2022/07/05 03:10:25;;;;;;;8.85;7.03;;;;;;;14.33;70.02;102071.31;5009136;28;20124;-51
2022/07/05 03:12:50;;;;;;;8.90;7.03;;;;;;;14.31;69.44;102077.34;5015194;28;20034;-50
2022/07/05 03:15:16;;;;;;;11.93;7.05;;;;;;;14.31;69.24;102080.88;5013604;28;20075;-48
2022/07/05 03:17:41;;;;;;;10.23;6.97;;;;;;;14.27;69.44;102081.63;5017029;28;20026;-50
2022/07/05 03:20:07;;;;;;;8.60;6.57;;;;;;;14.25;69.93;102078.97;5014791;28;20101;-49
2022/07/05 03:22:33;;;;;;;10.32;7.40;;;;;;;14.20;70.01;102084.94;5014651;28;20034;-48
2022/07/05 03:24:58;;;;;;;10.43;7.13;;;;;;;14.14;70.32;102087.38;5015500;28;20040;-49
2022/07/05 03:27:23;;;;;;;9.13;7.68;;;;;;;14.11;71.11;102088.16;5015340;28;20030;-53
2022/07/05 03:29:48;;;;;;;11.07;8.43;;;;;;;14.11;71.20;102087.25;5012782;28;20056;-49
2022/07/05 03:32:14;;;;;;;9.77;7.30;;;;;;;14.08;70.62;102081.09;5013192;28;20096;-49
2022/07/05 03:34:39;;;;;;;12.00;7.82;;;;;;;14.10;70.67;102086.38;5014561;28;20069;-49
2022/07/05 03:37:05;;;;;;;10.65;7.55;;;;;;;14.06;71.56;102085.41;5015885;28;20022;-49
2022/07/05 03:39:30;;;;;;;10.32;7.93;;;;;;;14.06;71.38;102092.38;5012760;28;20117;-50
2022/07/05 03:41:55;;;;;;;13.38;8.05;;;;;;;14.01;71.56;102092.25;5015174;28;20104;-50
2022/07/05 03:44:21;;;;;;;10.43;7.70;;;;;;;13.99;71.66;102096.56;5014141;28;20025;-52
2022/07/05 03:46:46;;;;;;;10.20;7.72;;;;;;;13.98;71.33;102097.41;5015307;28;20112;-51
2022/07/05 03:49:11;;;;;;;10.68;7.82;;;;;;;13.98;71.54;102093.91;5015078;28;20048;-50
2022/07/05 03:51:36;;;;;;;11.23;8.00;;;;;;;13.98;71.37;102100.03;5014418;28;20370;-48
2022/07/05 03:54:02;;;;;;;11.38;8.05;;;;;;;13.95;72.06;102089.44;5015048;28;20030;-49
2022/07/05 03:56:27;;;;;;;11.07;8.23;;;;;;;13.94;72.28;102095.53;5015581;28;20021;-49
2022/07/05 03:58:53;;;;;;;11.50;8.23;;;;;;;13.95;71.94;102096.41;5014250;28;20029;-50
2022/07/05 04:01:19;;;;;;;11.43;8.02;;;;;;;13.96;72.38;102106.97;5012695;28;20034;-48
2022/07/05 04:03:44;;;;;;;12.15;7.78;;;;;;;13.94;72.78;102107.75;5014632;28;20033;-48
2022/07/05 04:06:10;;;;;;;10.38;8.43;;;;;;;13.93;73.04;102101.59;5014302;28;20045;-48
2022/07/05 04:08:36;;;;;;;12.90;10.38;;;;;;;13.93;73.82;102106.84;5015876;28;20027;-48
2022/07/05 04:11:01;;;;;;;11.25;8.75;;;;;;;13.92;73.49;102110.31;5014671;28;20113;-48
2022/07/05 04:13:27;;;;;;;13.35;8.60;;;;;;;13.96;73.42;102111.28;5014673;28;20141;-50
2022/07/05 04:15:53;;;;;;;12.43;9.18;;;;;;;13.98;73.35;102117.50;5015195;28;20088;-50
2022/07/05 04:18:18;;;;;;;12.77;8.80;;;;;;;13.99;73.34;102112.28;5014897;28;20057;-48
2022/07/05 04:20:44;;;;;;;14.70;9.82;;;;;;;13.95;74.31;102118.28;5014723;28;20033;-51
2022/07/05 04:23:09;;;;;;;14.30;10.30;;;;;;;13.96;74.45;102120.06;5010947;28;20476;-49
2022/07/05 04:25:35;;;;;;;18.10;11.38;;;;;;;13.97;73.92;102113.94;5010743;28;20409;-48
2022/07/05 04:28:00;;;;;;;15.80;12.82;;;;;;;13.99;74.33;102117.53;5012470;28;20042;-48
2022/07/05 04:30:26;;;;;;;14.93;12.18;;;;;;;14.03;74.74;102114.16;5011245;28;20017;-48
2022/07/05 04:32:51;;;;;;;16.42;12.65;;;;;;;14.04;74.91;102110.69;5012463;28;20219;-49
2022/07/05 04:35:17;;;;;;;16.52;12.35;;;;;;;14.05;75.07;102114.22;5009881;28;20053;-51
2022/07/05 04:37:43;;;;;;;18.02;12.18;;;;;;;14.06;75.72;102109.00;5012150;28;20021;-50
2022/07/05 04:40:11;;;;;;;17.33;12.73;;;;;;;14.06;75.52;102108.09;5010844;28;20501;-50
2022/07/05 04:42:36;;;;;;;17.83;12.88;;;;;;;14.05;76.12;102111.59;5011068;28;20061;-48
2022/07/05 04:45:02;;;;;;;15.90;12.10;;;;;;;14.08;76.05;102111.66;5010568;28;20116;-50
2022/07/05 04:47:28;;;;;;;16.75;12.20;;;;;;;14.11;75.83;102111.75;5011723;28;20030;-51
2022/07/05 04:49:53;;;;;;;16.23;11.55;;;;;;;14.13;76.21;102112.69;5012244;28;20030;-51
2022/07/05 04:52:19;;;;;;;18.17;12.20;;;;;;;14.17;76.26;102113.66;5010942;28;20117;-49
2022/07/05 04:54:44;;;;;;;18.10;13.07;;;;;;;14.21;76.22;102124.28;5010797;28;20029;-50
2022/07/05 04:57:10;;;;;;;17.17;12.48;;;;;;;14.23;76.84;102117.34;5010900;28;20036;-56
2022/07/05 04:59:35;;;;;;;17.50;12.07;;;;;;;14.27;76.19;102111.34;5011323;28;20037;-54
2022/07/05 05:02:00;;;;;;;21.05;12.60;;;;;;;14.32;76.07;102105.34;5011365;28;20561;-56
2022/07/05 05:04:26;;;;;;;18.95;12.85;;;;;;;14.33;76.14;102105.38;5009302;28;20083;-56
2022/07/05 05:06:51;;;;;;;18.52;12.10;;;;;;;14.36;75.50;102105.47;5010190;28;20527;-56
2022/07/05 05:09:17;;;;;;;19.77;11.98;;;;;;;14.39;76.71;102108.19;5009422;28;20037;-56
2022/07/05 05:11:42;;;;;;;20.17;12.25;;;;;;;14.41;76.46;102122.25;5009939;28;20030;-56
2022/07/05 05:14:07;;;;;;;18.70;12.30;;;;;;;14.43;75.81;102107.44;5010166;28;20108;-56
2022/07/05 05:16:33;;;;;;;19.63;13.45;;;;;;;14.47;76.77;102115.38;5011446;28;20018;-56
2022/07/05 05:18:58;;;;;;;19.08;12.90;;;;;;;14.48;77.12;102115.41;5010543;28;20029;-56
2022/07/05 05:21:23;;;;;;;20.85;13.52;;;;;;;14.52;77.46;102119.03;5009594;28;20026;-56
2022/07/05 05:23:49;;;;;;;20.15;13.23;;;;;;;14.56;77.03;102123.53;5010075;28;20397;-56
2022/07/05 05:26:14;;;;;;;18.77;13.05;;;;;;;14.59;77.05;102116.59;5009703;28;20038;-56
2022/07/05 05:28:40;;;;;;;18.95;13.27;;;;;;;14.63;78.28;102119.34;5009858;28;20030;-56
2022/07/05 05:31:05;;;;;;;19.60;13.77;;;;;;;14.67;79.00;102118.59;5011348;28;20156;-56
2022/07/05 05:33:31;;;;;;;20.23;14.40;;;;;;;14.72;79.04;102130.09;5011115;28;20040;-56
2022/07/05 05:35:57;;;;;;;21.52;14.60;;;;;;;14.74;80.06;102142.44;5008455;28;20025;-56
2022/07/05 05:38:22;;;;;;;19.23;14.45;;;;;;;14.78;80.04;102146.88;5010121;28;20607;-56
2022/07/05 05:40:48;;;;;;;22.48;15.00;;;;;;;14.84;79.65;102143.53;5010294;28;20037;-56
2022/07/05 05:43:13;;;;;;;22.63;15.95;;;;;;;14.89;79.48;102146.31;5010085;28;20448;-56
2022/07/05 05:45:39;;;;;;;24.42;16.83;;;;;;;14.92;80.19;102151.63;5010578;28;20108;-56
2022/07/05 05:48:04;;;;;;;26.08;16.73;;;;;;;14.94;79.26;102150.81;5010156;28;20533;-56
2022/07/05 05:50:36;;;;;;;26.77;17.10;;;;;;;14.99;80.06;102153.59;5008541;28;20042;-56
2022/07/05 05:53:02;;;;;;;27.67;17.40;;;;;;;15.05;79.46;102161.59;5010358;28;20105;-56
2022/07/05 05:55:29;;;;;;;25.98;17.77;;;;;;;15.09;78.87;102152.97;5008135;28;20116;-56
2022/07/05 05:57:54;;;;;;;26.33;18.63;;;;;;;15.16;78.97;102154.00;5010839;28;20477;-56
2022/07/05 06:00:21;;;;;;;28.23;19.90;;;;;;;15.16;79.37;102151.38;5010712;28;20069;-56
2022/07/05 06:02:49;;;;;;;30.73;19.27;;;;;;;15.22;79.23;102155.91;5009422;28;20098;-57
2022/07/05 06:05:15;;;;;;;28.48;20.52;;;;;;;15.28;79.19;102163.94;5008468;28;20050;-56
2022/07/05 06:07:52;;;;;;;30.33;20.83;;;;;;;15.31;78.97;102161.41;5004780;28;20544;-57
2022/07/05 06:10:19;;;;;;;29.20;20.50;;;;;;;15.35;78.58;102160.63;5009054;28;20036;-57
2022/07/05 06:12:45;;;;;;;29.13;20.05;;;;;;;15.39;78.56;102164.22;5008765;28;20057;-56
2022/07/05 06:15:10;;;;;;;29.33;20.13;;;;;;;15.44;78.94;102166.09;5010053;28;20637;-57
2022/07/05 06:17:39;;;;;;;30.30;20.35;;;;;;;15.48;79.52;102162.72;5009502;28;20030;-56
2022/07/05 06:20:09;;;;;;;29.70;20.38;;;;;;;15.54;78.92;102166.31;5008671;28;20378;-56
2022/07/05 06:22:35;;;;;;;25.98;18.23;;;;;;;15.60;78.04;102166.50;5009079;28;20283;-57
2022/07/05 06:25:00;;;;;;;27.95;18.17;;;;;;;15.65;78.11;102168.34;5009505;28;20313;-56
2022/07/05 06:27:26;;;;;;;25.90;18.05;;;;;;;15.69;78.13;102169.31;5007671;28;20282;-51
2022/07/05 06:29:51;;;;;;;27.38;17.60;;;;;;;15.75;78.09;102172.09;5011527;28;20079;-52
2022/07/05 06:32:16;;;;;;;27.10;16.67;;;;;;;15.80;77.75;102170.50;5012955;28;20088;-52
2022/07/05 06:34:42;;;;;;;24.88;15.02;;;;;;;15.85;76.92;102170.59;5019092;28;20024;-49
2022/07/05 06:37:07;;;;;;;23.08;14.55;;;;;;;15.91;76.55;102172.50;5007904;28;20061;-48
2022/07/05 06:39:33;;;;;;;22.67;14.63;;;;;;;15.95;76.16;102177.84;5014512;28;20021;-51
2022/07/05 06:41:59;;;;;;;23.00;13.70;;;;;;;15.99;76.05;102184.06;5006334;28;20457;-51
2022/07/05 06:44:24;;;;;;;23.83;14.63;;;;;;;16.03;75.30;102175.38;5009362;28;20057;-52
2022/07/05 06:46:50;;;;;;;23.85;15.02;;;;;;;16.06;73.30;102180.72;5007908;28;20045;-50
2022/07/05 06:49:15;;;;;;;23.55;14.82;;;;;;;16.11;74.23;102179.06;5010427;28;20049;-48
2022/07/05 06:51:40;;;;;;;24.25;14.98;;;;;;;16.17;73.97;102186.22;5008666;28;20021;-52
2022/07/05 06:54:05;;;;;;;23.00;14.52;;;;;;;16.22;73.96;102189.84;5009345;28;20389;-51
2022/07/05 06:56:31;;;;;;;24.92;15.52;;;;;;;16.28;73.63;102183.81;5008854;28;20393;-53
2022/07/05 06:58:56;;;;;;;23.27;14.00;;;;;;;16.33;73.10;102182.16;5009133;28;20033;-52
2022/07/05 07:01:21;;;;;;;24.70;15.77;;;;;;;16.37;72.40;102176.13;5009576;28;20048;-51
2022/07/05 07:03:47;;;;;;;24.08;15.18;;;;;;;16.40;72.59;102181.44;5017564;28;20096;-50
2022/07/05 07:06:12;;;;;;;25.83;15.73;;;;;;;16.43;73.30;102181.50;5006011;28;20033;-52
2022/07/05 07:11:21;;;;;;;23.50;14.90;;;;;;;16.57;73.39;102180.91;5009167;28;20095;-53
2022/07/05 07:13:47;;;;;;;24.20;14.65;;;;;;;16.65;73.64;102181.94;5008417;28;20026;-52
2022/07/05 07:16:12;;;;;;;26.25;14.93;;;;;;;16.76;73.39;102180.41;5005934;28;20036;-50
2022/07/05 07:18:37;;;;;;;20.92;13.23;;;;;;;16.82;72.53;102185.78;5020589;28;20030;-50
2022/07/05 07:21:02;;;;;;;21.25;13.52;;;;;;;16.89;73.44;102188.56;5010743;28;20058;-50
2022/07/05 07:23:28;;;;;;;19.58;11.55;;;;;;;16.96;73.41;102187.81;5012818;28;20120;-52
2022/07/05 07:25:53;;;;;;;22.58;11.77;;;;;;;17.03;73.92;102192.34;5008955;28;20025;-53
2022/07/05 07:28:18;;;;;;;20.02;12.82;;;;;;;17.09;73.44;102186.31;5009941;28;20072;-52
2022/07/05 07:30:44;;;;;;;24.55;13.77;;;;;;;17.15;74.77;102191.72;5009424;28;20053;-51
2022/07/05 07:33:09;;;;;;;27.02;13.93;;;;;;;17.18;74.29;102195.28;5009921;28;20040;-52
2022/07/05 07:35:34;;;;;;;21.45;11.50;;;;;;;17.25;74.14;102190.09;5007600;28;20049;-52
2022/07/05 07:37:59;;;;;;;20.27;11.25;;;;;;;17.29;73.74;102199.84;5009933;28;20041;-51
2022/07/05 07:40:25;;;;;;;17.25;10.52;;;;;;;17.33;73.39;102201.69;5009811;28;20076;-52
2022/07/05 07:42:50;;;;;;;20.45;11.85;;;;;;;17.38;73.46;102207.94;5009982;28;20041;-53
2022/07/05 07:45:15;;;;;;;22.73;11.70;;;;;;;17.41;73.21;102200.06;5010302;28;20036;-51
2022/07/05 07:47:41;;;;;;;23.98;12.52;;;;;;;17.48;73.57;102201.03;5009083;28;20447;-52
2022/07/05 07:50:06;;;;;;;22.80;13.15;;;;;;;17.53;73.43;102207.28;5009703;28;20021;-51
2022/07/05 07:52:33;;;;;;;23.95;13.25;;;;;;;17.59;74.26;102207.38;5009966;28;20092;-48
2022/07/05 07:54:59;;;;;;;25.73;13.77;;;;;;;17.62;72.66;102206.56;5009840;28;20551;-51
2022/07/05 07:57:24;;;;;;;19.23;12.68;;;;;;;17.65;72.56;102196.94;5021200;28;20033;-57
2022/07/05 07:59:50;;;;;;;25.30;13.88;;;;;;;17.72;73.99;102197.94;5015447;28;20045;-56
2022/07/05 08:02:17;;;;;;;23.73;14.63;;;;;;;17.79;73.92;102205.06;5013481;28;20121;-57
2022/07/05 08:04:42;;;;;;;24.38;13.20;;;;;;;17.82;73.05;102207.75;5013220;28;20455;-56
2022/07/05 08:07:07;;;;;;;25.35;12.85;;;;;;;17.88;73.24;102199.06;5012307;28;20065;-57
2022/07/05 08:09:33;;;;;;;26.25;12.65;;;;;;;17.93;73.17;102201.78;5010487;28;20117;-56
2022/07/05 08:11:58;;;;;;;16.35;10.18;;;;;;;17.97;72.12;102206.25;5013327;28;20049;-56
2022/07/05 08:14:24;;;;;;;17.13;9.98;;;;;;;18.01;72.42;102194.88;5013093;28;20076;-57
2022/07/05 08:16:49;;;;;;;17.63;9.85;;;;;;;18.06;72.34;102198.44;5012492;28;20025;-57
2022/07/05 08:22:01;;;;;;;18.10;12.25;;;;;;;18.20;73.13;102212.72;5019138;28;20072;-57
2022/07/05 08:24:26;;;;;;;24.17;13.13;;;;;;;18.24;72.74;102211.03;5011193;28;20623;-55
2022/07/05 08:26:52;;;;;;;22.95;12.45;;;;;;;18.29;73.22;102203.16;5011694;28;20069;-55
2022/07/05 08:29:17;;;;;;;25.88;13.32;;;;;;;18.35;72.65;102209.44;5011653;28;20033;-55
2022/07/05 08:31:45;;;;;;;22.85;14.43;;;;;;;18.40;71.89;102209.47;5012564;28;20130;-55
2022/07/05 08:34:11;;;;;;;24.80;14.20;;;;;;;18.44;72.13;102211.31;5012475;28;20026;-55
2022/07/05 08:36:37;;;;;;;25.73;15.80;;;;;;;18.48;71.46;102207.84;5009113;28;20025;-54
2022/07/05 08:39:03;;;;;;;29.23;15.27;;;;;;;18.52;72.28;102204.34;5012420;28;20093;-54
2022/07/05 08:41:32;;;;;;;27.83;16.90;;;;;;;18.59;71.70;102203.56;5012584;28;20029;-55
2022/07/05 08:43:57;;;;;;;31.27;18.80;;;;;;;18.62;71.60;102205.34;5009012;28;20440;-56
2022/07/05 08:46:25;;;;;;;32.33;18.10;;;;;;;18.67;71.40;102208.03;5012121;28;20293;-56
2022/07/05 08:48:51;;;;;;;33.47;17.27;;;;;;;18.71;71.57;102202.84;5012269;28;20037;-55
2022/07/05 08:51:22;;;;;;;30.27;18.48;;;;;;;18.77;71.90;102202.03;5009694;28;20026;-57
2022/07/05 08:53:48;;;;;;;29.23;17.02;;;;;;;18.80;71.84;102196.78;5011426;28;20029;-57
2022/07/05 08:56:15;;;;;;;27.75;17.55;;;;;;;18.82;70.88;102202.06;5010220;28;20040;-50
2022/07/05 08:58:41;;;;;;;31.30;18.15;;;;;;;18.88;71.68;102202.16;5011891;28;20113;-48
2022/07/05 09:01:08;;;;;;;22.95;15.93;;;;;;;18.96;72.40;102195.22;5011895;28;20093;-47
2022/07/05 09:03:38;;;;;;;31.15;17.20;;;;;;;19.11;71.58;102203.28;5011307;28;20060;-52
2022/07/05 09:06:07;;;;;;;28.10;17.75;;;;;;;19.18;69.75;102198.94;5011507;28;20029;-52
2022/07/05 09:08:38;;;;;;;28.80;17.35;;;;;;;19.21;69.48;102201.63;5011177;28;20057;-52
2022/07/05 09:11:04;;;;;;;21.73;13.70;;;;;;;19.28;69.27;102214.03;5014337;28;20128;-52
2022/07/05 09:13:35;;;;;;;22.98;13.15;;;;;;;19.31;67.30;102207.00;5010956;28;20497;-51
2022/07/05 09:16:00;;;;;;;17.63;11.48;;;;;;;19.37;67.37;102205.28;5015017;28;20036;-51
2022/07/05 09:18:38;;;;;;;19.40;12.45;;;;;;;19.44;67.85;102209.75;5024455;28;20025;-53
2022/07/05 09:21:16;;;;;;;23.58;15.02;;;;;;;19.50;67.95;102206.28;5017900;28;20078;-53
2022/07/05 09:23:42;;;;;;;19.17;11.75;;;;;;;19.56;67.37;102213.38;5005519;28;20030;-50
2022/07/05 09:26:08;;;;;;;23.83;15.13;;;;;;;19.60;66.82;102208.13;5008455;28;20042;-51
2022/07/05 09:28:34;;;;;;;21.50;12.27;;;;;;;19.68;66.72;102204.66;5016593;28;20500;-51
2022/07/05 09:30:59;;;;;;;17.60;11.82;;;;;;;19.77;66.51;102207.38;5011256;28;20037;-50
2022/07/05 09:33:24;;;;;;;19.42;11.45;;;;;;;19.87;65.88;102208.34;5013369;28;20389;-52
2022/07/05 09:36:01;;;;;;;20.40;13.55;;;;;;;19.91;63.13;102204.84;5011621;28;20489;-51
2022/07/05 09:38:27;;;;;;;18.55;11.93;;;;;;;19.95;64.29;102201.34;5011806;28;20049;-51
2022/07/05 09:40:57;;;;;;;15.40;11.50;;;;;;;20.11;64.25;102212.91;5015339;28;20219;-53
2022/07/05 09:43:25;;;;;;;15.95;10.80;;;;;;;20.24;64.27;102203.28;5009533;28;20061;-52
2022/07/05 09:45:57;;;;;;;17.13;11.73;;;;;;;20.32;60.54;102202.44;5003994;28;20511;-54
2022/07/05 09:48:23;;;;;;;19.98;11.90;;;;;;;20.39;63.74;102192.78;5011653;28;20022;-52
2022/07/05 09:50:50;;;;;;;20.20;13.20;;;;;;;20.42;62.39;102194.53;5010202;28;20037;-53
2022/07/05 09:53:16;;;;;;;16.77;12.77;;;;;;;20.49;62.63;102194.59;5011509;28;20038;-51
2022/07/05 09:55:42;;;;;;;20.88;13.57;;;;;;;20.52;61.30;102192.81;5020528;28;20377;-52
2022/07/05 09:58:07;;;;;;;19.95;13.32;;;;;;;20.49;59.70;102193.69;5015417;28;20029;-56
2022/07/05 10:00:33;;;;;;;16.55;12.50;;;;;;;20.47;58.57;102198.09;5013205;28;20036;-56
2022/07/05 10:03:02;;;;;;;16.25;13.40;;;;;;;20.41;59.07;102192.78;5017897;28;20053;-56
2022/07/05 10:05:31;;;;;;;17.08;13.48;;;;;;;20.40;58.97;102188.38;5010794;28;20093;-56
2022/07/05 10:08:01;;;;;;;17.48;13.90;;;;;;;20.36;57.32;102194.53;5010355;28;20478;-56
2022/07/05 10:10:30;;;;;;;18.27;13.63;;;;;;;20.36;57.68;102192.75;5010340;28;20026;-56
2022/07/05 10:12:58;;;;;;;16.35;14.07;;;;;;;20.38;60.68;102198.94;5009489;28;20030;-55
2022/07/05 10:15:25;;;;;;;17.98;13.07;;;;;;;20.40;62.05;102198.97;5010350;28;20036;-57
2022/07/05 10:18:12;;;;;;;18.77;13.98;;;;;;;20.41;62.11;102201.59;5010771;28;20026;-57
2022/07/05 10:20:37;;;;;;;18.92;14.48;;;;;;;20.40;62.51;102201.59;5011117;28;20544;-56
2022/07/05 10:23:13;;;;;;;19.15;14.80;;;;;;;20.38;62.27;102206.91;5009606;28;20117;-56
2022/07/05 10:25:41;;;;;;;19.38;14.20;;;;;;;20.40;62.18;102209.53;5010837;28;20026;-57
2022/07/05 10:28:08;;;;;;;20.95;14.52;;;;;;;20.37;62.80;102199.81;5014563;28;20037;-57
2022/07/05 10:30:34;;;;;;;20.17;15.63;;;;;;;20.38;61.64;102211.28;5007958;28;20157;-57
2022/07/05 10:33:05;;;;;;;20.30;15.95;;;;;;;20.44;63.77;102198.09;5007161;28;20048;-57
2022/07/05 10:35:30;;;;;;;21.30;17.40;;;;;;;20.52;62.73;102204.28;5008677;28;20098;-57
2022/07/05 10:37:57;;;;;;;18.23;13.90;;;;;;;20.60;62.77;102202.56;5010616;28;20456;-57
2022/07/05 10:40:23;;;;;;;19.85;14.73;;;;;;;20.64;61.06;102200.81;5010666;28;20057;-57
2022/07/05 10:42:54;;;;;;;21.90;13.65;;;;;;;20.70;60.91;102199.97;5007403;28;20060;-57
2022/07/05 10:45:49;;;;;;;19.77;14.70;;;;;;;20.76;61.39;102197.34;5010408;28;20018;-57
2022/07/05 10:48:22;;;;;;;13.38;10.75;;;;;;;20.75;58.38;102192.94;5008085;28;20046;-56
2022/07/05 10:51:14;;;;;;;15.70;10.70;;;;;;;20.76;59.27;102192.06;5010227;28;20515;-57
2022/07/05 10:53:39;;;;;;;13.75;10.65;;;;;;;20.82;62.12;102190.28;5008996;28;20036;-56
2022/07/05 10:56:04;;;;;;;15.47;10.60;;;;;;;20.92;60.60;102201.81;5007710;28;20025;-57
2022/07/05 10:58:33;;;;;;;12.07;8.87;;;;;;;21.04;59.84;102202.72;5012870;28;20379;-56
2022/07/05 11:01:20;;;;;;;11.93;8.93;;;;;;;21.15;59.50;102200.97;5009280;28;20748;-57
2022/07/05 11:03:57;;;;;;;12.15;7.53;;;;;;;21.19;58.67;102200.97;5015549;28;20052;-57
2022/07/05 11:06:26;;;;;;;8.63;6.05;;;;;;;21.23;58.68;102198.31;5014320;28;20112;-56
2022/07/05 11:09:00;;;;;;;;;;;;;;;21.28;58.37;102202.75;5019443;28;20033;-56
2022/07/05 11:11:28;;;;;;;10.43;6.22;;;;;;;21.23;57.63;102199.19;5008655;28;20073;-56
2022/07/05 11:13:55;;;;;;;7.93;6.00;;;;;;;21.23;57.65;102203.63;5016047;28;20037;-56
2022/07/05 11:16:35;;;;;;;9.73;6.00;;;;;;;21.16;57.19;102210.66;5007299;28;20329;-56
2022/07/05 11:19:07;;;;;;;9.52;6.55;;;;;;;21.13;57.18;102213.31;5007654;28;20235;-57